首页
METAR-TAF:

METAR-TAF

机场 :

里士满国际机场

里士满, 弗吉尼亚州, 美国

纬度: 37-30-40N, 经度: 077-19-24W, 海拔: 51米

当前天气观测

该预报发布于55分钟前的18:54 UTC
风速4节,风向南转西南
温度 28°C
湿度 62%
气压 1021 hPa
能見度: 16.1公里
多云层高于4600英尺
多云层高于25000英尺

METAR: KRIC 251854Z 20004KT 10SM BKN046 BKN250 28/20 A3016 RMK AO2 SLP218 T02830200

时间: 15:49 (19:49 UTC)

预报

该预报发布于2小时和19分钟前的17:30 UTC
预报有效从25日的 18点(UTC)到 26日的 18点(UTC)
风速6节,风向南转南东
能見度: 10公里
散云层高于3000英尺
多云层高于30000英尺
从 26日的 0000点(UTC)
风速4节,风向东转东南
能見度: 10公里
散云层高于2000英尺
多云层高于12000英尺
从 26日的 0800点(UTC)
风速3节,风向多变
能見度: 3.2公里
多云层高于1000英尺
轻雾
从 26日的 1400点(UTC)
风速5节,风向西南
能見度: 10公里
散云层高于6000英尺

TAF: KRIC 251730Z 2518/2618 16006KT P6SM SCT030 BKN300 FM260000 12004KT P6SM SCT020 BKN120 FM260800 VRB03KT 2SM BR BKN010 FM261400 22005KT P6SM SCT060

超过4000个机场的气象观测和天气预报(METAR&TAF报告)。

可查询的气象台以黄色和红色小点在地图上表示。

将鼠标移到小点上方,可查看气象台名称。

然后点击查看天气观测和预报。

如需切换地图:点击带黑十字的绿色按钮放大地图;点击带横线的绿色按钮缩小地图;或者点击绿色箭头查看邻近地区的地图。


METAR-TAF: